createdAt,value
2018-07-02T00:01:48.141Z,13.7
2018-07-02T00:06:58.216Z,13.5
2018-07-02T00:12:01.185Z,13.6
2018-07-02T00:16:58.171Z,13.4
2018-07-02T00:21:58.108Z,13.4
2018-07-02T00:26:58.095Z,13.4
2018-07-02T00:31:58.069Z,13.3
2018-07-02T00:37:00.042Z,13.2
2018-07-02T00:42:06.081Z,13
2018-07-02T00:47:07.044Z,13
2018-07-02T00:52:08.018Z,13
2018-07-02T00:57:05.987Z,12.7
2018-07-02T01:02:06.953Z,12.8
2018-07-02T01:07:05.951Z,12.6
2018-07-02T01:12:15.008Z,12.4
2018-07-02T01:17:14.964Z,12.3
2018-07-02T01:22:14.957Z,12.3
2018-07-02T01:27:14.927Z,11.7
2018-07-02T01:32:15.858Z,12
2018-07-02T01:37:14.843Z,11.9
2018-07-02T01:42:24.916Z,11.6
2018-07-02T01:47:24.879Z,11.6
2018-07-02T01:52:26.852Z,11.6
2018-07-02T01:57:25.829Z,11.6
2018-07-02T02:02:25.803Z,11.4
2018-07-02T02:07:28.803Z,11.4
2018-07-02T02:12:27.774Z,11.3
2018-07-02T02:17:27.733Z,11.3
2018-07-02T02:22:28.728Z,11.2
2018-07-02T02:27:27.701Z,11.2
2018-07-02T02:32:27.649Z,11.1
2018-07-02T02:37:37.714Z,11
2018-07-02T02:42:35.660Z,11
2018-07-02T02:47:35.632Z,10.8
2018-07-02T02:52:35.648Z,10.9
2018-07-02T02:57:35.594Z,10.8
2018-07-02T03:02:36.572Z,10.7
2018-07-02T03:07:49.673Z,10.6
2018-07-02T03:12:49.636Z,10.6
2018-07-02T03:17:49.622Z,10.5
2018-07-02T03:22:49.592Z,10.5
2018-07-02T03:27:50.562Z,10.4
2018-07-02T03:32:49.515Z,10.4
2018-07-02T03:37:50.491Z,10.3
2018-07-02T03:42:54.516Z,10.2
2018-07-02T03:47:55.503Z,10.2
2018-07-02T03:52:54.485Z,10.2
2018-07-02T03:57:55.412Z,10.5
2018-07-02T04:02:55.407Z,10.9
2018-07-02T04:07:54.402Z,11.4
2018-07-02T04:13:01.484Z,11.6
2018-07-02T04:18:04.396Z,11.6
2018-07-02T04:23:01.382Z,12
2018-07-02T04:28:01.320Z,12.2
2018-07-02T04:33:01.305Z,12.4
2018-07-02T04:38:01.262Z,12.6
2018-07-02T04:43:17.398Z,12.9
2018-07-02T04:48:15.360Z,13.2
2018-07-02T04:53:16.305Z,13.5
2018-07-02T04:58:15.296Z,13.6
2018-07-02T05:03:15.257Z,13.9
2018-07-02T05:08:17.231Z,13.6
2018-07-02T05:13:28.319Z,14.2
2018-07-02T05:18:27.306Z,14.5
2018-07-02T05:23:27.271Z,14.9
2018-07-02T05:28:28.243Z,15.2
2018-07-02T05:33:27.206Z,15.4
2018-07-02T05:38:28.171Z,15.4
2018-07-02T05:43:32.192Z,15.8
2018-07-02T05:48:33.218Z,16.2
2018-07-02T05:53:32.160Z,16.5
2018-07-02T05:58:33.118Z,16.9
2018-07-02T06:03:34.103Z,16.4
2018-07-02T06:08:33.094Z,16.8
2018-07-02T06:13:40.096Z,17.2
2018-07-02T06:18:40.467Z,17.4
2018-07-02T06:23:39.025Z,17.4
2018-07-02T06:28:40.009Z,17.4
2018-07-02T06:33:42.994Z,17.1
2018-07-02T06:38:41.001Z,17.6
2018-07-02T06:43:51.037Z,18
2018-07-02T06:48:51.008Z,18.1
2018-07-02T06:53:50.987Z,18.2
2018-07-02T06:58:50.992Z,18.1
2018-07-02T07:03:51.916Z,18
2018-07-02T07:08:50.906Z,18.3
2018-07-02T07:13:57.928Z,18.6
2018-07-02T07:19:00.918Z,18.3
2018-07-02T07:23:57.863Z,18.6
2018-07-02T07:28:59.843Z,19.2
2018-07-02T07:34:01.849Z,19.2
2018-07-02T07:38:58.811Z,19.4
2018-07-02T07:44:02.809Z,20.1
2018-07-02T07:49:03.782Z,19.8
2018-07-02T07:54:05.779Z,20.2
2018-07-02T07:59:03.724Z,20.3
2018-07-02T08:04:03.706Z,20.2
2018-07-02T08:09:02.654Z,20.5
2018-07-02T08:14:10.708Z,20.7
2018-07-02T08:19:11.702Z,20.5
2018-07-02T08:24:15.701Z,20.8
2018-07-02T08:29:13.707Z,20.7
2018-07-02T08:34:14.629Z,20.7
2018-07-02T08:39:14.602Z,20.8
2018-07-02T08:44:26.665Z,21.1
2018-07-02T08:49:27.667Z,21.4
2018-07-02T08:54:25.656Z,20.9
2018-07-02T08:59:27.153Z,21.2
2018-07-02T09:04:26.591Z,21.8
2018-07-02T09:09:27.561Z,21.2
2018-07-02T09:14:42.717Z,21.7
2018-07-02T09:19:40.655Z,22.1
2018-07-02T09:24:41.598Z,22.3
2018-07-02T09:29:40.597Z,22.4
2018-07-02T09:34:40.548Z,22.5
2018-07-02T09:39:56.668Z,22.1
2018-07-02T09:44:59.660Z,22.3
2018-07-02T09:49:56.621Z,22.8
2018-07-02T09:54:57.577Z,22.7
2018-07-02T09:59:56.558Z,23
2018-07-02T10:04:56.543Z,23
2018-07-02T10:09:58.531Z,23.1
2018-07-02T10:14:58.493Z,23.2
2018-07-02T10:19:58.485Z,23.4
2018-07-02T10:24:59.427Z,23.5
2018-07-02T10:29:58.422Z,23.3
2018-07-02T10:35:15.554Z,23.5
2018-07-02T10:40:16.519Z,23.7
2018-07-02T10:45:18.526Z,24
2018-07-02T10:50:15.499Z,23.7
2018-07-02T10:55:16.415Z,23.8
2018-07-02T11:00:15.442Z,24.3
2018-07-02T11:05:24.482Z,24.2
2018-07-02T11:10:25.462Z,24.3
2018-07-02T11:15:23.533Z,24.2
2018-07-02T11:20:24.415Z,24.2
2018-07-02T11:25:26.376Z,24.4
2018-07-02T11:30:24.335Z,24.2
2018-07-02T11:35:31.341Z,24.4
2018-07-02T11:40:30.339Z,25.1
2018-07-02T11:45:30.294Z,24.7
2018-07-02T11:50:32.274Z,24.8
2018-07-02T11:55:30.234Z,24.5
2018-07-02T12:00:30.201Z,24.7
2018-07-02T12:05:48.337Z,25.6
2018-07-02T12:10:47.368Z,25.3
2018-07-02T12:15:47.288Z,25.6
2018-07-02T12:20:46.295Z,25.1
2018-07-02T12:25:47.251Z,25.4
2018-07-02T12:30:48.193Z,25.4
2018-07-02T12:35:53.229Z,25.4
2018-07-02T12:40:53.206Z,25.3
2018-07-02T12:45:56.199Z,25.1
2018-07-02T12:50:53.167Z,25.3
2018-07-02T12:55:55.121Z,25.2
2018-07-02T13:00:53.083Z,25.7
2018-07-02T13:06:07.201Z,25.9
2018-07-02T13:11:05.173Z,25.7
2018-07-02T13:16:06.136Z,26
2018-07-02T13:21:08.105Z,25.5
2018-07-02T13:26:06.076Z,25.8
2018-07-02T13:31:07.036Z,25.6
2018-07-02T13:36:23.235Z,25.8
2018-07-02T13:41:20.128Z,25.8
2018-07-02T13:46:22.093Z,25.5
2018-07-02T13:51:25.099Z,25.4
2018-07-02T13:56:24.104Z,26.2
2018-07-02T14:01:24.050Z,26.1
2018-07-02T14:06:26.021Z,26.2
2018-07-02T14:11:39.139Z,26.3
2018-07-02T14:16:39.098Z,26
2018-07-02T14:21:40.702Z,26
2018-07-02T14:26:44.080Z,26.3
2018-07-02T14:31:42.032Z,26.2
2018-07-02T14:36:43.013Z,26.2
2018-07-02T14:42:00.147Z,26.2
2018-07-02T14:46:59.144Z,26.4
2018-07-02T14:51:59.095Z,26.1
2018-07-02T14:57:00.712Z,25.9
2018-07-02T15:01:59.053Z,25.9
2018-07-02T15:07:01.038Z,25.9
2018-07-02T15:11:58.996Z,26
2018-07-02T15:17:13.113Z,26.3
2018-07-02T15:22:12.097Z,26.3
2018-07-02T15:27:13.059Z,26.1
2018-07-02T15:32:14.021Z,26.1
2018-07-02T15:37:12.974Z,25.9
2018-07-02T15:42:12.962Z,25.6
2018-07-02T15:47:29.080Z,25.5
2018-07-02T15:52:27.027Z,25.6
2018-07-02T15:57:27.004Z,25.6
2018-07-02T16:02:26.973Z,25.5
2018-07-02T16:07:27.925Z,25.6
2018-07-02T16:12:28.916Z,25.4
2018-07-02T16:17:26.944Z,25.6
2018-07-02T16:22:35.918Z,25.6
2018-07-02T16:27:32.937Z,25.6
2018-07-02T16:32:33.883Z,25.6
2018-07-02T16:37:35.859Z,25.5
2018-07-02T16:42:33.839Z,25.4
2018-07-02T16:47:33.793Z,25.4
2018-07-02T16:52:35.819Z,25.3
2018-07-02T16:57:49.866Z,25.4
2018-07-02T17:02:48.847Z,25.1
2018-07-02T17:07:48.848Z,25.2
2018-07-02T17:12:48.806Z,25.2
2018-07-02T17:17:48.752Z,25
2018-07-02T17:22:48.737Z,25
2018-07-02T17:27:55.762Z,25.1
2018-07-02T17:32:57.997Z,25
2018-07-02T17:37:55.732Z,24.9
2018-07-02T17:43:04.785Z,24.8
2018-07-02T17:48:03.733Z,24.8
2018-07-02T17:53:03.730Z,24.8
2018-07-02T17:58:16.817Z,24.8
2018-07-02T18:03:16.807Z,24.6
2018-07-02T18:08:18.760Z,24.5
2018-07-02T18:13:21.743Z,24.4
2018-07-02T18:18:23.742Z,23.7
2018-07-02T18:23:21.745Z,23.4
2018-07-02T18:28:31.797Z,23
2018-07-02T18:33:32.770Z,22.7
2018-07-02T18:38:31.748Z,22.5
2018-07-02T18:43:31.680Z,22.3
2018-07-02T18:48:32.922Z,22.1
2018-07-02T18:53:31.685Z,21.8
2018-07-02T18:58:39.676Z,21.6
2018-07-02T19:03:40.661Z,21.4
2018-07-02T19:08:45.684Z,21.3
2018-07-02T19:13:46.672Z,21.1
2018-07-02T19:18:45.652Z,20.9
2018-07-02T19:23:45.615Z,20.8
2018-07-02T19:29:02.737Z,20.6
2018-07-02T19:34:00.738Z,20.5
2018-07-02T19:39:01.671Z,20.3
2018-07-02T19:44:04.612Z,20.1
2018-07-02T19:49:00.595Z,20
2018-07-02T19:54:02.598Z,19.7
2018-07-02T19:59:07.647Z,19.5
2018-07-02T20:04:08.587Z,19.5
2018-07-02T20:09:10.595Z,19.3
2018-07-02T20:14:12.583Z,19.1
2018-07-02T20:19:11.606Z,18.9
2018-07-02T20:24:13.527Z,18.6
2018-07-02T20:29:13.500Z,18.6
2018-07-02T20:34:23.574Z,18.4
2018-07-02T20:39:22.555Z,18.3
2018-07-02T20:44:22.504Z,18.2
2018-07-02T20:49:25.492Z,18
2018-07-02T20:54:24.449Z,17.9
2018-07-02T20:59:24.431Z,17.7
2018-07-02T21:04:28.452Z,17.6
2018-07-02T21:09:29.401Z,17.5
2018-07-02T21:14:28.378Z,17.2
2018-07-02T21:19:28.369Z,17.2
2018-07-02T21:24:29.338Z,17.1
2018-07-02T21:29:28.300Z,16.9
2018-07-02T21:34:35.356Z,16.8
2018-07-02T21:39:34.371Z,16.8
2018-07-02T21:44:55.799Z,16.6
2018-07-02T21:49:53.444Z,16.6
2018-07-02T21:54:53.400Z,16.2
2018-07-02T21:59:59.446Z,16.3
2018-07-02T22:04:59.400Z,16.2
2018-07-02T22:09:59.394Z,16.1
2018-07-02T22:14:59.341Z,15.9
2018-07-02T22:20:00.323Z,15.9
2018-07-02T22:24:59.291Z,15.7
2018-07-02T22:30:09.362Z,15.7
2018-07-02T22:35:09.341Z,15.6
2018-07-02T22:40:10.348Z,15.4
2018-07-02T22:45:09.290Z,15.2
2018-07-02T22:50:10.250Z,15.3
2018-07-02T22:55:09.263Z,15.2
2018-07-02T23:00:22.319Z,15.1
2018-07-02T23:05:21.279Z,15
2018-07-02T23:10:22.234Z,15
2018-07-02T23:15:24.261Z,14.8
2018-07-02T23:20:27.230Z,14.8
2018-07-02T23:25:24.213Z,14.6
2018-07-02T23:30:28.232Z,14.5
2018-07-02T23:35:29.233Z,14.4
2018-07-02T23:40:29.463Z,14.4
2018-07-02T23:45:28.141Z,14.3
2018-07-02T23:50:29.229Z,14.3
2018-07-02T23:55:31.088Z,14
